createdAt,value
2017-12-21T00:00:55.336Z,47.60
2017-12-21T00:01:55.345Z,53.50
2017-12-21T00:02:55.346Z,50.00
2017-12-21T00:03:55.358Z,58.20
2017-12-21T00:04:55.370Z,57.50
2017-12-21T00:05:55.377Z,49.10
2017-12-21T00:06:55.392Z,57.70
2017-12-21T00:07:55.408Z,76.60
2017-12-21T00:08:55.409Z,56.60
2017-12-21T00:09:55.408Z,51.80
2017-12-21T00:10:55.417Z,57.30
2017-12-21T00:11:55.433Z,53.40
2017-12-21T00:12:55.438Z,55.40
2017-12-21T00:13:55.450Z,55.90
2017-12-21T00:14:55.450Z,55.80
2017-12-21T00:15:55.460Z,53.20
2017-12-21T00:16:55.539Z,50.40
2017-12-21T00:17:55.477Z,59.20
2017-12-21T00:18:55.499Z,56.20
2017-12-21T00:19:55.490Z,63.50
2017-12-21T00:20:55.504Z,61.60
2017-12-21T00:21:55.510Z,59.50
2017-12-21T00:22:55.519Z,60.70
2017-12-21T00:23:55.528Z,59.70
2017-12-21T00:24:55.537Z,59.20
2017-12-21T00:25:55.539Z,69.30
2017-12-21T00:26:55.556Z,61.50
2017-12-21T00:27:55.562Z,65.60
2017-12-21T00:28:55.577Z,64.80
2017-12-21T00:29:55.571Z,73.00
2017-12-21T00:30:55.591Z,75.90
2017-12-21T00:31:55.602Z,69.60
2017-12-21T00:32:55.601Z,73.60
2017-12-21T00:33:55.607Z,71.40
2017-12-21T00:34:55.616Z,69.40
2017-12-21T00:35:55.625Z,66.60
2017-12-21T00:36:55.633Z,64.70
2017-12-21T00:37:55.639Z,68.50
2017-12-21T00:38:55.648Z,67.10
2017-12-21T00:39:55.655Z,64.00
2017-12-21T00:40:55.665Z,69.50
2017-12-21T00:41:55.685Z,75.10
2017-12-21T00:42:55.682Z,76.50
2017-12-21T00:43:55.688Z,71.40
2017-12-21T00:44:55.697Z,72.20
2017-12-21T00:45:55.703Z,68.90
2017-12-21T00:46:55.719Z,63.90
2017-12-21T00:47:55.730Z,60.30
2017-12-21T00:48:55.732Z,64.00
2017-12-21T00:49:55.734Z,75.40
2017-12-21T00:50:55.788Z,61.80
2017-12-21T00:51:55.766Z,62.90
2017-12-21T00:52:55.764Z,54.80
2017-12-21T00:53:55.772Z,54.90
2017-12-21T00:54:55.898Z,60.70
2017-12-21T00:55:55.788Z,59.00
2017-12-21T00:56:55.803Z,57.50
2017-12-21T00:57:55.804Z,57.70
2017-12-21T00:58:55.819Z,66.70
2017-12-21T00:59:55.833Z,65.20
2017-12-21T01:00:55.852Z,66.00
2017-12-21T01:01:55.834Z,65.50
2017-12-21T01:02:55.844Z,70.60
2017-12-21T01:03:55.858Z,68.40
2017-12-21T01:04:55.870Z,66.20
2017-12-21T01:05:55.874Z,88.90
2017-12-21T01:06:55.880Z,77.80
2017-12-21T01:07:55.896Z,88.90
2017-12-21T01:08:55.902Z,83.50
2017-12-21T01:09:55.905Z,80.80
2017-12-21T01:10:55.922Z,79.10
2017-12-21T01:11:55.920Z,82.30
2017-12-21T01:12:55.936Z,78.70
2017-12-21T01:13:55.942Z,81.70
2017-12-21T01:14:55.948Z,91.60
2017-12-21T01:15:55.981Z,92.80
2017-12-21T01:16:55.968Z,94.40
2017-12-21T01:17:55.976Z,95.90
2017-12-21T01:18:55.986Z,82.30
2017-12-21T01:19:55.990Z,86.80
2017-12-21T01:20:55.996Z,70.50
2017-12-21T01:21:56.014Z,75.80
2017-12-21T01:22:56.014Z,89.30
2017-12-21T01:23:56.027Z,93.40
2017-12-21T01:24:56.034Z,84.40
2017-12-21T01:25:56.042Z,80.00
2017-12-21T01:26:56.049Z,71.00
2017-12-21T01:27:56.062Z,75.30
2017-12-21T01:28:56.064Z,73.80
2017-12-21T01:29:56.072Z,71.60
2017-12-21T01:30:56.078Z,79.20
2017-12-21T01:31:56.080Z,71.90
2017-12-21T01:32:56.154Z,77.10
2017-12-21T01:33:56.107Z,68.40
2017-12-21T01:34:56.124Z,79.70
2017-12-21T01:35:56.125Z,74.20
2017-12-21T01:36:56.138Z,87.10
2017-12-21T01:37:56.143Z,82.70
2017-12-21T01:38:56.170Z,81.20
2017-12-21T01:39:56.156Z,77.80
2017-12-21T01:40:56.174Z,80.10
2017-12-21T01:41:56.171Z,77.30
2017-12-21T01:42:56.184Z,71.90
2017-12-21T01:43:56.202Z,84.70
2017-12-21T01:44:56.211Z,79.60
2017-12-21T01:45:56.228Z,79.60
2017-12-21T01:46:56.223Z,63.40
2017-12-21T01:47:56.228Z,76.80
2017-12-21T01:48:56.235Z,63.50
2017-12-21T01:49:56.246Z,65.10
2017-12-21T01:50:56.249Z,65.00
2017-12-21T01:51:56.267Z,67.00
2017-12-21T01:52:56.266Z,65.70
2017-12-21T01:53:56.269Z,62.90
2017-12-21T01:54:56.288Z,61.70
2017-12-21T01:55:56.402Z,64.50
2017-12-21T01:56:56.304Z,57.70
2017-12-21T01:57:56.328Z,62.00
2017-12-21T01:58:56.328Z,60.60
2017-12-21T01:59:56.328Z,53.70
2017-12-21T02:00:56.338Z,62.40
2017-12-21T02:01:56.342Z,59.00
2017-12-21T02:02:56.360Z,59.40
2017-12-21T02:03:56.363Z,58.60
2017-12-21T02:04:56.368Z,64.70
2017-12-21T02:05:56.376Z,62.70
2017-12-21T02:06:56.382Z,64.60
2017-12-21T02:07:56.389Z,57.40
2017-12-21T02:08:56.400Z,64.40
2017-12-21T02:09:56.410Z,58.60
2017-12-21T02:10:56.420Z,52.90
2017-12-21T02:11:56.425Z,68.30
2017-12-21T02:12:56.438Z,54.90
2017-12-21T02:13:56.440Z,61.10
2017-12-21T02:14:56.454Z,61.90
2017-12-21T02:15:56.460Z,63.40
2017-12-21T02:16:56.467Z,66.00
2017-12-21T02:17:56.483Z,65.70
2017-12-21T02:18:56.489Z,69.50
2017-12-21T02:19:56.495Z,64.70
2017-12-21T02:20:56.499Z,75.10
2017-12-21T02:21:56.512Z,80.70
2017-12-21T02:22:56.523Z,74.50
2017-12-21T02:23:56.559Z,76.20
2017-12-21T02:24:56.534Z,72.50
2017-12-21T02:25:56.547Z,74.70
2017-12-21T02:26:56.553Z,76.10
2017-12-21T02:27:56.567Z,72.30
2017-12-21T02:28:56.576Z,78.80
2017-12-21T02:29:56.567Z,71.70
2017-12-21T02:30:56.592Z,79.50
2017-12-21T02:31:56.603Z,78.10
2017-12-21T02:32:56.617Z,84.30
2017-12-21T02:33:57.434Z,82.20
2017-12-21T02:34:56.628Z,69.60
2017-12-21T02:35:56.629Z,77.60
2017-12-21T02:36:56.639Z,85.40
2017-12-21T02:37:56.649Z,87.70
2017-12-21T02:38:56.644Z,85.80
2017-12-21T02:39:56.670Z,79.60
2017-12-21T02:40:56.678Z,92.40
2017-12-21T02:41:56.685Z,84.80
2017-12-21T02:42:56.694Z,92.90
2017-12-21T02:43:56.702Z,91.30
2017-12-21T02:44:56.710Z,96.10
2017-12-21T02:45:56.714Z,92.20
2017-12-21T02:46:56.735Z,92.20
2017-12-21T02:47:56.735Z,97.90
2017-12-21T02:48:56.744Z,99.70
2017-12-21T02:49:56.754Z,99.90
2017-12-21T02:50:56.759Z,96.00
2017-12-21T02:51:56.765Z,97.90
2017-12-21T02:52:56.779Z,93.80
2017-12-21T02:53:56.785Z,96.30
2017-12-21T02:54:56.792Z,98.70
2017-12-21T02:55:56.804Z,109.70
2017-12-21T02:56:56.806Z,100.30
2017-12-21T02:57:56.812Z,110.90
2017-12-21T02:58:56.829Z,112.50
2017-12-21T02:59:56.837Z,99.40
2017-12-21T03:00:56.841Z,109.90
2017-12-21T03:01:56.854Z,109.90
2017-12-21T03:02:56.865Z,110.30
2017-12-21T03:03:56.867Z,100.00
2017-12-21T03:04:56.878Z,110.90
2017-12-21T03:05:56.886Z,97.60
2017-12-21T03:06:56.906Z,102.80
2017-12-21T03:07:56.901Z,97.00
2017-12-21T03:08:56.913Z,93.50
2017-12-21T03:09:56.926Z,100.80
2017-12-21T03:10:56.934Z,97.80
2017-12-21T03:11:56.994Z,92.90
2017-12-21T03:12:56.947Z,94.20
2017-12-21T03:13:56.953Z,99.20
2017-12-21T03:14:56.964Z,98.80
2017-12-21T03:15:56.972Z,107.80
2017-12-21T03:16:56.983Z,92.30
2017-12-21T03:17:56.992Z,90.70
2017-12-21T03:18:57.001Z,90.90
2017-12-21T03:19:57.011Z,96.00
2017-12-21T03:20:57.015Z,95.80
2017-12-21T03:21:57.012Z,89.20
2017-12-21T03:22:57.032Z,86.90
2017-12-21T03:23:57.040Z,88.20
2017-12-21T03:24:57.050Z,79.80
2017-12-21T03:25:57.058Z,81.40
2017-12-21T03:26:57.070Z,92.60
2017-12-21T03:27:57.076Z,107.20
2017-12-21T03:28:57.085Z,128.80
2017-12-21T03:29:57.080Z,118.90
2017-12-21T03:30:57.096Z,181.90
2017-12-21T03:31:57.112Z,186.10
2017-12-21T03:32:57.114Z,229.60
2017-12-21T03:33:57.187Z,277.20
2017-12-21T03:34:57.124Z,137.20
2017-12-21T03:35:57.135Z,240.30
2017-12-21T03:36:57.148Z,188.90
2017-12-21T03:37:57.158Z,105.40
2017-12-21T03:38:57.167Z,165.00
2017-12-21T03:39:57.172Z,206.00
2017-12-21T03:40:57.186Z,135.70
2017-12-21T03:41:57.195Z,160.50
2017-12-21T03:42:57.203Z,181.90
2017-12-21T03:43:57.205Z,221.30
2017-12-21T03:44:57.293Z,226.30
2017-12-21T03:45:57.238Z,119.30
2017-12-21T03:46:57.236Z,148.00
2017-12-21T03:47:57.242Z,155.80
2017-12-21T03:48:57.250Z,190.90
2017-12-21T03:49:57.263Z,253.10
2017-12-21T03:50:57.269Z,123.20
2017-12-21T03:51:57.278Z,166.10
2017-12-21T03:52:57.284Z,271.60
2017-12-21T03:53:57.290Z,461.50
2017-12-21T03:54:57.303Z,136.60
2017-12-21T03:55:57.311Z,103.40
2017-12-21T03:56:57.317Z,109.40
2017-12-21T03:57:57.326Z,486.80
2017-12-21T03:58:57.333Z,546.80
2017-12-21T03:59:57.348Z,1458.30
2017-12-21T04:00:57.353Z,744.00
2017-12-21T04:01:57.373Z,695.80
2017-12-21T04:02:57.371Z,281.80
2017-12-21T04:03:57.375Z,367.40
2017-12-21T04:04:57.385Z,150.20
2017-12-21T04:05:57.383Z,148.50
2017-12-21T04:06:57.399Z,216.40
2017-12-21T04:07:57.407Z,121.30
2017-12-21T04:08:57.418Z,77.60
2017-12-21T04:09:57.424Z,80.10
2017-12-21T04:10:57.439Z,79.00
2017-12-21T04:11:57.445Z,77.20
2017-12-21T04:12:57.534Z,83.60
2017-12-21T04:13:57.461Z,82.70
2017-12-21T04:14:57.465Z,79.30
2017-12-21T04:15:57.480Z,77.10
2017-12-21T04:16:57.489Z,86.40
2017-12-21T04:17:57.494Z,88.10
2017-12-21T04:18:57.516Z,103.50
2017-12-21T04:19:57.510Z,95.50
2017-12-21T04:20:57.519Z,105.40
2017-12-21T04:21:57.525Z,97.90
2017-12-21T04:22:57.519Z,103.60
2017-12-21T04:23:57.549Z,102.50
2017-12-21T04:24:57.575Z,101.60
2017-12-21T04:25:57.562Z,97.20
2017-12-21T04:26:57.565Z,103.80
2017-12-21T04:27:57.583Z,104.10
2017-12-21T04:28:57.588Z,112.20
2017-12-21T04:29:57.592Z,116.80
2017-12-21T04:30:57.601Z,117.90
2017-12-21T04:31:57.614Z,112.00
2017-12-21T04:32:57.615Z,116.90
2017-12-21T04:33:57.625Z,111.60
2017-12-21T04:34:57.634Z,115.50
2017-12-21T04:35:57.653Z,119.50
2017-12-21T04:36:57.656Z,117.10
2017-12-21T04:37:57.648Z,123.90
2017-12-21T04:38:57.669Z,132.60
2017-12-21T04:39:57.679Z,135.90
2017-12-21T04:40:57.685Z,143.00
2017-12-21T04:41:57.691Z,136.70
2017-12-21T04:42:57.698Z,134.50
2017-12-21T04:43:57.709Z,150.50
2017-12-21T04:44:57.716Z,150.90
2017-12-21T04:45:57.724Z,150.50
2017-12-21T04:46:57.736Z,151.50
2017-12-21T04:47:57.737Z,147.20
2017-12-21T04:48:57.745Z,166.60
2017-12-21T04:49:57.754Z,153.10
2017-12-21T04:50:57.771Z,151.80
2017-12-21T04:51:57.776Z,164.40
2017-12-21T04:52:57.778Z,165.50
2017-12-21T04:53:57.784Z,171.30
2017-12-21T04:54:57.792Z,169.00
2017-12-21T04:55:57.805Z,143.70
2017-12-21T04:56:57.812Z,159.10
2017-12-21T04:57:57.814Z,157.70
2017-12-21T04:58:57.822Z,158.90
2017-12-21T04:59:57.834Z,149.50
2017-12-21T05:00:57.829Z,154.00
2017-12-21T05:01:57.853Z,149.00
2017-12-21T05:02:57.852Z,154.10
2017-12-21T05:03:57.856Z,144.70
2017-12-21T05:04:57.878Z,145.40
2017-12-21T05:05:57.882Z,142.40
2017-12-21T05:06:57.891Z,143.50
2017-12-21T05:07:57.885Z,157.60
2017-12-21T05:08:57.903Z,159.50
2017-12-21T05:09:57.911Z,154.90
2017-12-21T05:10:57.925Z,155.40
2017-12-21T05:11:57.930Z,144.40
2017-12-21T05:12:57.943Z,138.40
2017-12-21T05:13:57.954Z,156.70
2017-12-21T05:14:57.952Z,143.70
2017-12-21T05:15:57.961Z,136.40
2017-12-21T05:16:57.966Z,149.50
2017-12-21T05:17:57.983Z,141.00
2017-12-21T05:18:57.983Z,138.00
2017-12-21T05:19:58.004Z,114.00
2017-12-21T05:20:57.997Z,125.10
2017-12-21T05:21:58.006Z,136.10
2017-12-21T05:22:58.012Z,133.30
2017-12-21T05:23:58.131Z,134.90
2017-12-21T05:24:58.031Z,138.80
2017-12-21T05:25:58.037Z,127.30
2017-12-21T05:26:58.047Z,121.70
2017-12-21T05:27:58.058Z,112.40
2017-12-21T05:28:58.063Z,127.00
2017-12-21T05:29:58.063Z,133.90
2017-12-21T05:30:58.080Z,126.90
2017-12-21T05:31:58.084Z,135.30
2017-12-21T05:32:58.093Z,132.50
2017-12-21T05:33:58.106Z,125.80
2017-12-21T05:34:58.113Z,130.60
2017-12-21T05:35:58.117Z,126.40
2017-12-21T05:36:58.138Z,128.40
2017-12-21T05:37:58.139Z,123.20
2017-12-21T05:38:58.138Z,122.70
2017-12-21T05:39:58.153Z,129.40
2017-12-21T05:40:58.168Z,128.60
2017-12-21T05:41:58.190Z,127.10
2017-12-21T05:42:58.177Z,125.30
2017-12-21T05:43:58.184Z,118.30
2017-12-21T05:44:58.201Z,120.80
2017-12-21T05:45:58.201Z,124.60
2017-12-21T05:46:58.204Z,118.60
2017-12-21T05:47:58.221Z,126.80
2017-12-21T05:48:58.226Z,104.70
2017-12-21T05:49:58.227Z,125.40
2017-12-21T05:50:58.238Z,120.40
2017-12-21T05:51:58.962Z,115.90
2017-12-21T05:52:58.260Z,116.70
2017-12-21T05:53:58.262Z,113.40
2017-12-21T05:54:58.272Z,126.40
2017-12-21T05:55:58.280Z,115.30
2017-12-21T05:56:58.283Z,107.90
2017-12-21T05:57:58.293Z,106.20
2017-12-21T05:58:58.304Z,116.30
2017-12-21T05:59:58.312Z,108.20
2017-12-21T06:00:58.314Z,112.80
2017-12-21T06:01:58.475Z,106.60
2017-12-21T06:02:58.333Z,100.50
2017-12-21T06:03:58.344Z,97.80
2017-12-21T06:04:58.354Z,88.60
2017-12-21T06:05:58.352Z,94.70
2017-12-21T06:06:58.382Z,92.90
2017-12-21T06:07:58.374Z,102.20
2017-12-21T06:08:58.375Z,97.00
2017-12-21T06:09:58.392Z,90.20
2017-12-21T06:10:58.409Z,91.60
2017-12-21T06:11:58.398Z,95.40
2017-12-21T06:12:58.413Z,90.70
2017-12-21T06:13:58.420Z,91.30
2017-12-21T06:14:58.432Z,84.00
2017-12-21T06:15:58.439Z,88.70
2017-12-21T06:16:58.440Z,78.00
2017-12-21T06:17:58.466Z,81.40
2017-12-21T06:18:58.466Z,81.80
2017-12-21T06:19:58.468Z,75.80
2017-12-21T06:20:58.484Z,79.80
2017-12-21T06:21:58.478Z,72.50
2017-12-21T06:22:58.494Z,77.00
2017-12-21T06:23:58.497Z,80.40
2017-12-21T06:24:58.511Z,72.40
2017-12-21T06:25:58.518Z,74.40
2017-12-21T06:26:58.529Z,76.50
2017-12-21T06:27:58.533Z,66.60
2017-12-21T06:28:58.536Z,64.40
2017-12-21T06:29:58.600Z,65.70
2017-12-21T06:30:58.562Z,74.60
2017-12-21T06:31:58.560Z,67.30
2017-12-21T06:32:58.566Z,78.20
2017-12-21T06:33:58.574Z,68.20
2017-12-21T06:34:58.577Z,80.70
2017-12-21T06:35:58.593Z,69.00
2017-12-21T06:36:58.600Z,76.70
2017-12-21T06:37:58.611Z,72.90
2017-12-21T06:38:58.619Z,66.60
2017-12-21T06:39:58.631Z,73.00
2017-12-21T06:40:58.638Z,65.30
2017-12-21T06:41:58.643Z,64.80
2017-12-21T06:42:58.649Z,60.90
2017-12-21T06:43:58.660Z,66.70
2017-12-21T06:44:58.669Z,65.30
2017-12-21T06:45:58.675Z,62.50
2017-12-21T06:46:58.671Z,63.50
2017-12-21T06:47:58.693Z,64.10
2017-12-21T06:48:58.699Z,66.20
2017-12-21T06:49:58.703Z,59.80
2017-12-21T06:50:58.700Z,56.10
2017-12-21T06:51:58.723Z,58.10
2017-12-21T06:52:58.790Z,69.30
2017-12-21T06:53:58.742Z,60.20
2017-12-21T06:54:58.751Z,61.20
2017-12-21T06:55:58.754Z,54.90
2017-12-21T06:56:58.767Z,52.60
2017-12-21T06:57:58.766Z,54.20
2017-12-21T06:58:58.788Z,56.90
2017-12-21T06:59:58.787Z,56.40
2017-12-21T07:00:58.796Z,56.00
2017-12-21T07:01:58.800Z,56.20
2017-12-21T07:02:58.815Z,57.10
2017-12-21T07:03:58.819Z,49.00
2017-12-21T07:04:58.839Z,58.60
2017-12-21T07:05:58.836Z,55.00
2017-12-21T07:06:58.963Z,57.20
2017-12-21T07:07:58.853Z,57.60
2017-12-21T07:08:58.907Z,57.30
2017-12-21T07:09:58.864Z,56.80
2017-12-21T07:10:58.884Z,55.20
2017-12-21T07:11:58.880Z,54.20
2017-12-21T07:12:58.903Z,54.60
2017-12-21T07:13:58.900Z,58.30
2017-12-21T07:14:58.906Z,58.70
2017-12-21T07:15:58.912Z,52.60
2017-12-21T07:16:58.930Z,57.50
2017-12-21T07:17:58.932Z,53.30
2017-12-21T07:18:58.942Z,60.60
2017-12-21T07:19:58.953Z,61.90
2017-12-21T07:20:58.956Z,58.20
2017-12-21T07:21:58.963Z,58.40
2017-12-21T07:22:58.979Z,56.30
2017-12-21T07:23:58.989Z,59.70
2017-12-21T07:24:58.981Z,59.60
2017-12-21T07:25:58.994Z,58.80
2017-12-21T07:26:59.009Z,50.00
2017-12-21T07:27:59.007Z,50.70
2017-12-21T07:28:59.032Z,56.30
2017-12-21T07:29:59.043Z,52.90
2017-12-21T07:30:59.030Z,48.30
2017-12-21T07:31:59.045Z,57.00
2017-12-21T07:32:59.050Z,47.40
2017-12-21T07:33:59.052Z,49.10
2017-12-21T07:34:59.063Z,51.90
2017-12-21T07:35:59.068Z,53.10
2017-12-21T07:36:59.097Z,47.00
2017-12-21T07:37:59.077Z,46.10
2017-12-21T07:38:59.097Z,52.90
2017-12-21T07:39:59.100Z,50.80
2017-12-21T07:40:59.110Z,59.30
2017-12-21T07:41:59.115Z,63.20
2017-12-21T07:42:59.128Z,59.20
2017-12-21T07:43:59.204Z,47.40
2017-12-21T07:44:59.152Z,54.80
2017-12-21T07:45:59.150Z,58.70
2017-12-21T07:46:59.166Z,52.40
2017-12-21T07:47:59.169Z,60.60
2017-12-21T07:48:59.182Z,60.80
2017-12-21T07:49:59.183Z,56.10
2017-12-21T07:50:59.195Z,46.40
2017-12-21T07:51:59.198Z,58.20
2017-12-21T07:52:59.204Z,55.30
2017-12-21T07:53:59.208Z,48.60
2017-12-21T07:54:59.228Z,50.70
2017-12-21T07:55:59.228Z,50.50
2017-12-21T07:56:59.238Z,48.90
2017-12-21T07:57:59.243Z,51.50
2017-12-21T07:58:59.260Z,41.40
2017-12-21T07:59:59.261Z,38.70
2017-12-21T08:00:59.277Z,41.30
2017-12-21T08:01:59.278Z,43.10
2017-12-21T08:03:59.293Z,46.60
2017-12-21T08:04:59.454Z,42.80
2017-12-21T08:05:59.460Z,43.10
2017-12-21T08:06:59.326Z,42.60
2017-12-21T08:07:59.329Z,49.80
2017-12-21T08:08:59.331Z,46.10
2017-12-21T08:09:59.336Z,40.90
2017-12-21T08:10:59.346Z,42.10
2017-12-21T08:11:59.374Z,47.00
2017-12-21T08:12:59.365Z,45.40
2017-12-21T08:13:59.375Z,41.00
2017-12-21T08:14:59.378Z,42.30
2017-12-21T08:15:59.389Z,43.20
2017-12-21T08:16:59.396Z,39.20
2017-12-21T08:17:59.408Z,40.30
2017-12-21T08:18:59.415Z,45.50
2017-12-21T08:19:59.415Z,37.30
2017-12-21T08:20:59.441Z,38.80
2017-12-21T08:21:59.485Z,36.60
2017-12-21T08:22:59.457Z,35.20
2017-12-21T08:23:59.460Z,38.70
2017-12-21T08:24:59.457Z,36.00
2017-12-21T08:25:59.523Z,39.90
2017-12-21T08:26:59.483Z,36.30
2017-12-21T08:27:59.495Z,34.90
2017-12-21T08:28:59.503Z,31.00
2017-12-21T08:29:59.495Z,28.40
2017-12-21T08:30:59.512Z,34.10
2017-12-21T08:31:59.525Z,34.90
2017-12-21T08:32:59.528Z,33.60
2017-12-21T08:33:59.527Z,37.50
2017-12-21T08:34:59.545Z,30.30
2017-12-21T08:35:59.553Z,34.10
2017-12-21T08:36:59.564Z,32.80
2017-12-21T08:37:59.575Z,30.70
2017-12-21T08:38:59.583Z,35.00
2017-12-21T08:39:59.585Z,32.00
2017-12-21T08:40:59.595Z,29.20
2017-12-21T08:41:59.603Z,31.30
2017-12-21T08:42:59.609Z,36.20
2017-12-21T08:43:59.621Z,30.20
2017-12-21T08:44:59.628Z,34.30
2017-12-21T08:45:59.647Z,35.20
2017-12-21T08:46:59.646Z,32.90
2017-12-21T08:48:59.659Z,31.60
2017-12-21T08:49:59.673Z,32.70
2017-12-21T08:51:20.689Z,29.50
2017-12-21T08:51:59.687Z,33.40
2017-12-21T08:52:59.697Z,29.60
2017-12-21T08:53:59.702Z,31.20
2017-12-21T08:54:59.705Z,32.90
2017-12-21T08:55:59.723Z,34.10
2017-12-21T08:56:59.726Z,34.60
2017-12-21T08:57:59.739Z,35.40
2017-12-21T08:58:59.746Z,36.80
2017-12-21T08:59:59.761Z,32.60
2017-12-21T09:00:59.781Z,41.80
2017-12-21T09:01:59.767Z,37.60
2017-12-21T09:02:59.782Z,40.20
2017-12-21T09:03:59.787Z,33.00
2017-12-21T09:04:59.790Z,35.70
2017-12-21T09:05:59.797Z,37.70
2017-12-21T09:06:59.837Z,40.00
2017-12-21T09:07:59.823Z,40.00
2017-12-21T09:08:59.831Z,44.00
2017-12-21T09:11:38.000Z,41.20
2017-12-21T09:19:03.340Z,54.00
2017-12-21T09:20:03.349Z,54.60
2017-12-21T09:21:03.368Z,54.90
2017-12-21T09:22:03.380Z,58.20
2017-12-21T09:23:03.376Z,63.00
2017-12-21T09:24:03.373Z,64.20
2017-12-21T09:25:03.390Z,57.90
2017-12-21T09:26:03.441Z,59.40
2017-12-21T09:27:03.413Z,65.90
2017-12-21T09:28:03.414Z,65.70
2017-12-21T09:29:03.429Z,63.00
2017-12-21T09:30:03.459Z,65.10
2017-12-21T09:31:03.439Z,68.30
2017-12-21T09:32:03.453Z,75.70
2017-12-21T09:33:03.458Z,77.90
2017-12-21T09:34:03.466Z,84.00
2017-12-21T09:35:03.479Z,84.00
2017-12-21T09:36:03.487Z,85.80
2017-12-21T09:37:03.493Z,82.00
2017-12-21T09:38:03.544Z,85.60
2017-12-21T09:39:03.504Z,84.30
2017-12-21T09:40:03.517Z,88.80
2017-12-21T09:41:03.530Z,79.00
2017-12-21T09:42:03.533Z,86.30
2017-12-21T09:43:03.544Z,83.00
2017-12-21T09:44:03.546Z,90.90
2017-12-21T09:45:03.564Z,85.40
2017-12-21T09:46:03.564Z,90.60
2017-12-21T09:47:03.617Z,89.40
2017-12-21T09:48:03.581Z,87.40
2017-12-21T09:49:03.591Z,85.20
2017-12-21T09:50:03.599Z,84.20
2017-12-21T09:51:03.610Z,82.30
2017-12-21T09:52:03.617Z,84.90
2017-12-21T09:53:03.650Z,88.00
2017-12-21T09:54:03.637Z,91.70
2017-12-21T09:55:03.643Z,94.80
2017-12-21T09:56:03.650Z,93.80
2017-12-21T09:57:03.664Z,104.30
2017-12-21T09:58:03.664Z,103.80
2017-12-21T09:59:03.675Z,105.70
2017-12-21T10:00:03.696Z,113.10
2017-12-21T10:01:03.690Z,115.30
2017-12-21T10:02:03.702Z,117.50
2017-12-21T10:03:03.709Z,118.20
2017-12-21T10:04:03.718Z,114.50
2017-12-21T10:05:03.735Z,131.50
2017-12-21T10:06:03.748Z,139.30
2017-12-21T10:07:03.746Z,133.70
2017-12-21T10:08:03.748Z,131.70
2017-12-21T10:09:03.761Z,138.30
2017-12-21T10:10:03.765Z,141.40
2017-12-21T10:11:03.783Z,131.50
2017-12-21T10:12:03.785Z,151.70
2017-12-21T10:13:03.800Z,148.40
2017-12-21T10:14:03.804Z,140.40
2017-12-21T10:15:03.809Z,149.10
2017-12-21T10:16:03.820Z,150.00
2017-12-21T10:17:03.825Z,150.20
2017-12-21T10:18:03.844Z,150.30
2017-12-21T10:19:03.846Z,146.20
2017-12-21T10:20:03.854Z,158.90
2017-12-21T10:21:03.909Z,159.80
2017-12-21T10:22:03.872Z,147.30
2017-12-21T10:23:03.884Z,153.30
2017-12-21T10:24:03.884Z,157.00
2017-12-21T10:25:03.900Z,159.10
2017-12-21T10:26:03.937Z,156.90
2017-12-21T10:27:03.917Z,145.30
2017-12-21T10:28:03.941Z,152.80
2017-12-21T10:29:03.934Z,151.90
2017-12-21T10:30:03.942Z,160.40
2017-12-21T10:31:03.947Z,159.40
2017-12-21T10:32:03.954Z,147.00
2017-12-21T10:33:03.968Z,159.40
2017-12-21T10:34:03.976Z,157.40
2017-12-21T10:35:03.986Z,145.10
2017-12-21T10:36:04.009Z,149.20
2017-12-21T10:37:04.002Z,138.90
2017-12-21T10:38:04.009Z,134.90
2017-12-21T10:39:04.019Z,128.30
2017-12-21T10:40:04.047Z,120.10
2017-12-21T10:41:04.036Z,135.80
2017-12-21T10:42:04.046Z,122.70
2017-12-21T10:43:04.054Z,122.10
2017-12-21T10:44:04.055Z,125.60
2017-12-21T10:45:04.080Z,125.70
2017-12-21T10:46:04.075Z,117.80
2017-12-21T10:47:04.087Z,104.60
2017-12-21T10:48:04.112Z,111.10
2017-12-21T10:49:04.103Z,109.80
2017-12-21T10:50:04.123Z,112.70
2017-12-21T10:51:04.130Z,106.10
2017-12-21T10:52:04.133Z,113.00
2017-12-21T10:53:04.143Z,117.00
2017-12-21T10:54:04.164Z,107.30
2017-12-21T10:55:04.154Z,115.10
2017-12-21T10:56:04.166Z,106.70
2017-12-21T10:57:04.177Z,108.30
2017-12-21T10:58:04.174Z,121.70
2017-12-21T10:59:04.188Z,105.10
2017-12-21T11:00:04.201Z,116.70
2017-12-21T11:01:04.209Z,116.30
2017-12-21T11:02:04.212Z,126.40
2017-12-21T11:03:04.244Z,119.20
2017-12-21T11:04:04.238Z,117.70
2017-12-21T11:05:04.246Z,117.00
2017-12-21T11:06:04.255Z,104.10
2017-12-21T11:07:04.257Z,99.90
2017-12-21T11:08:04.371Z,96.40
2017-12-21T11:10:04.296Z,91.40
2017-12-21T11:11:04.300Z,96.50
2017-12-21T11:12:04.310Z,72.70
2017-12-21T11:13:04.314Z,70.00
2017-12-21T11:14:04.322Z,82.00
2017-12-21T11:15:04.340Z,78.00
2017-12-21T11:16:04.349Z,83.70
2017-12-21T11:17:04.351Z,82.60
2017-12-21T11:18:04.346Z,74.40
2017-12-21T11:19:04.371Z,75.90
2017-12-21T11:20:04.373Z,73.70
2017-12-21T11:21:04.417Z,72.20
2017-12-21T11:22:04.395Z,69.80
2017-12-21T11:23:04.403Z,68.00
2017-12-21T11:24:04.418Z,63.10
2017-12-21T11:25:04.431Z,64.20
2017-12-21T11:26:04.433Z,76.20
2017-12-21T11:27:04.441Z,72.80
2017-12-21T11:28:04.449Z,70.20
2017-12-21T11:29:04.455Z,61.70
2017-12-21T11:30:04.470Z,59.60
2017-12-21T11:31:04.476Z,54.20
2017-12-21T11:32:04.486Z,57.80
2017-12-21T11:33:04.490Z,56.40
2017-12-21T11:34:04.500Z,59.90
2017-12-21T11:35:04.508Z,56.40
2017-12-21T11:36:04.520Z,49.20
2017-12-21T11:37:04.525Z,53.90
2017-12-21T11:38:04.545Z,56.70
2017-12-21T11:39:04.549Z,53.20
2017-12-21T11:40:04.566Z,61.70
2017-12-21T11:41:04.569Z,62.40
2017-12-21T11:42:04.574Z,63.70
2017-12-21T11:43:04.588Z,58.50
2017-12-21T11:44:04.590Z,53.60
2017-12-21T11:45:04.594Z,62.10
2017-12-21T11:46:04.609Z,59.90
2017-12-21T11:47:04.614Z,57.00
2017-12-21T11:48:04.620Z,60.70
2017-12-21T11:49:04.641Z,62.80
2017-12-21T11:50:04.638Z,60.10
2017-12-21T11:51:04.664Z,55.10
2017-12-21T11:52:04.660Z,57.90
2017-12-21T11:53:04.679Z,60.60
2017-12-21T11:54:04.686Z,61.90
2017-12-21T11:55:04.693Z,67.00
2017-12-21T11:56:04.716Z,58.90
2017-12-21T11:57:04.709Z,65.00
2017-12-21T11:58:04.716Z,62.70
2017-12-21T11:59:04.731Z,55.40
2017-12-21T12:00:04.742Z,56.60
2017-12-21T12:01:04.742Z,62.60
2017-12-21T12:02:04.759Z,54.40
2017-12-21T12:03:04.770Z,50.50
2017-12-21T12:04:04.770Z,57.00
2017-12-21T12:05:04.788Z,55.90
2017-12-21T12:06:04.794Z,55.00
2017-12-21T12:08:04.812Z,55.80
2017-12-21T12:09:04.830Z,49.40
2017-12-21T12:10:04.831Z,53.60
2017-12-21T12:11:04.842Z,50.00
2017-12-21T12:12:04.871Z,56.30
2017-12-21T12:13:04.860Z,52.10
2017-12-21T12:14:04.876Z,44.90
2017-12-21T12:15:04.882Z,40.60
2017-12-21T12:16:04.881Z,45.70
2017-12-21T12:17:04.898Z,46.70
2017-12-21T12:18:04.902Z,46.20
2017-12-21T12:19:04.947Z,48.70
2017-12-21T12:20:04.929Z,47.90
2017-12-21T12:21:04.933Z,46.70
2017-12-21T12:22:04.943Z,45.80
2017-12-21T12:23:04.949Z,40.00
2017-12-21T12:24:04.980Z,43.30
2017-12-21T12:25:04.986Z,41.10
2017-12-21T12:26:04.976Z,44.30
2017-12-21T12:27:04.987Z,41.50
2017-12-21T12:28:05.005Z,35.70
2017-12-21T12:29:05.008Z,35.00
2017-12-21T12:30:05.030Z,40.80
2017-12-21T12:31:05.026Z,36.90
2017-12-21T12:32:05.038Z,36.90
2017-12-21T12:33:05.041Z,30.50
2017-12-21T12:34:05.109Z,30.20
2017-12-21T12:35:05.064Z,29.90
2017-12-21T12:36:05.072Z,29.50
2017-12-21T12:37:05.086Z,30.40
2017-12-21T12:38:05.083Z,29.60
2017-12-21T12:39:05.096Z,25.70
2017-12-21T12:40:05.109Z,27.70
2017-12-21T12:41:05.119Z,27.10
2017-12-21T12:42:05.124Z,28.20
2017-12-21T12:43:05.136Z,28.00
2017-12-21T12:44:05.217Z,26.80
2017-12-21T12:45:05.154Z,24.30
2017-12-21T12:46:05.167Z,28.40
2017-12-21T12:48:05.189Z,23.40
2017-12-21T12:49:05.186Z,23.40
2017-12-21T12:50:05.207Z,26.00
2017-12-21T12:51:05.214Z,24.00
2017-12-21T12:52:05.222Z,23.00
2017-12-21T12:53:05.238Z,25.40
2017-12-21T12:54:05.261Z,20.30
2017-12-21T12:55:05.252Z,19.30
2017-12-21T12:56:05.250Z,19.80
2017-12-21T12:57:06.024Z,17.30
2017-12-21T12:58:05.284Z,19.10
2017-12-21T12:59:05.285Z,18.30